Time;durP1;ratioP1;P1;durP2;ratioP2;P2;SDS_P1;SDS_P2;PMS_P1;PMS_P2;Temp;Humidity;BMP_temperature;BMP_pressure;BME280_temperature;BME280_humidity;BME280_pressure;Samples;Min_cycle;Max_cycle;Signal;HPM_P1;HPM_P2
2022/04/09 00:00:40;;;;;;;1.90;0.68;;;6.10;96.60;;;;;;5004251;28;20030;-71
2022/04/09 00:03:06;;;;;;;2.88;0.80;;;6.10;96.70;;;;;;5003912;28;20221;-70
2022/04/09 00:05:32;;;;;;;2.25;0.60;;;6.10;96.60;;;;;;5004330;28;20101;-71
2022/04/09 00:07:57;;;;;;;2.58;0.75;;;6.10;96.40;;;;;;5005637;28;20352;-70
2022/04/09 00:10:23;;;;;;;3.00;0.65;;;6.10;96.50;;;;;;4989416;28;20049;-70
2022/04/09 00:12:49;;;;;;;0.93;0.88;;;6.00;96.60;;;;;;5023434;28;20014;-70
2022/04/09 00:15:16;;;;;;;4.75;0.70;;;6.10;96.50;;;;;;5006721;28;20017;-70
2022/04/09 00:17:44;;;;;;;2.70;0.73;;;6.10;96.50;;;;;;5023858;28;20248;-71
2022/04/09 00:20:11;;;;;;;4.90;0.77;;;5.90;96.60;;;;;;5023681;28;20136;-70
2022/04/09 00:22:38;;;;;;;3.08;0.70;;;5.90;96.80;;;;;;5023377;28;20021;-70
2022/04/09 00:25:06;;;;;;;2.45;0.70;;;6.00;96.80;;;;;;5024593;28;20048;-70
2022/04/09 00:27:32;;;;;;;4.60;0.70;;;5.90;96.70;;;;;;5022807;28;20022;-70
2022/04/09 00:29:58;;;;;;;2.50;0.65;;;5.90;96.90;;;;;;5007318;28;20068;-70
2022/04/09 00:32:23;;;;;;;4.07;0.82;;;5.80;96.90;;;;;;5023337;28;20400;-69
2022/04/09 00:34:49;;;;;;;3.05;0.82;;;5.80;97.00;;;;;;5023016;28;20018;-70
2022/04/09 00:37:15;;;;;;;7.43;0.90;;;5.80;97.00;;;;;;5007093;28;20028;-71
2022/04/09 00:39:40;;;;;;;2.20;0.60;;;5.80;97.00;;;;;;5007262;28;20033;-70
2022/04/09 00:42:14;;;;;;;1.27;0.70;;;5.70;97.10;;;;;;5023157;28;20050;-70
2022/04/09 00:44:39;;;;;;;5.93;0.60;;;5.70;97.10;;;;;;5006833;28;20025;-71
2022/04/09 00:47:06;;;;;;;5.80;1.17;;;5.80;96.80;;;;;;5006751;28;20017;-70
2022/04/09 00:49:32;;;;;;;3.38;0.80;;;5.80;96.60;;;;;;5006699;28;20057;-70
2022/04/09 00:52:02;;;;;;;3.60;0.65;;;5.80;96.90;;;;;;5021673;28;20325;-70
2022/04/09 00:54:30;;;;;;;5.00;0.85;;;5.80;96.40;;;;;;5007051;28;20026;-70
2022/04/09 00:57:02;;;;;;;4.57;0.80;;;5.80;96.50;;;;;;5006805;28;20022;-70
2022/04/09 00:59:30;;;;;;;9.40;2.20;;;5.70;96.70;;;;;;5006872;28;20321;-70
2022/04/09 01:01:55;;;;;;;3.22;0.80;;;5.60;96.80;;;;;;5006487;28;20029;-70
2022/04/09 01:04:23;;;;;;;5.93;0.90;;;5.60;97.00;;;;;;5006495;28;20025;-69
2022/04/09 01:06:49;;;;;;;5.30;0.85;;;5.60;97.00;;;;;;5022905;28;20018;-70
2022/04/09 01:09:15;;;;;;;5.43;0.90;;;5.60;97.20;;;;;;5022890;28;20026;-71
2022/04/09 01:11:41;;;;;;;6.05;1.38;;;5.60;97.20;;;;;;4994584;28;20105;-70
2022/04/09 01:14:07;;;;;;;6.07;0.98;;;5.60;97.10;;;;;;5002885;28;20022;-70
2022/04/09 01:16:33;;;;;;;2.05;0.75;;;5.50;97.00;;;;;;5002872;28;20026;-70
2022/04/09 01:19:01;;;;;;;2.97;0.77;;;5.40;97.10;;;;;;5003203;28;20205;-70
2022/04/09 01:21:28;;;;;;;5.22;0.90;;;5.30;97.30;;;;;;5002914;28;20206;-70
2022/04/09 01:23:54;;;;;;;4.07;0.88;;;5.20;97.60;;;;;;4987123;28;20045;-70
2022/04/09 01:26:21;;;;;;;3.58;0.93;;;5.00;98.10;;;;;;5002522;28;20029;-70
2022/04/09 01:28:48;;;;;;;4.85;0.90;;;4.90;98.40;;;;;;4986935;28;20026;-70
2022/04/09 01:31:14;;;;;;;2.38;0.88;;;4.90;98.50;;;;;;4986813;28;20248;-69
2022/04/09 01:33:40;;;;;;;3.50;1.10;;;4.80;98.60;;;;;;5005969;28;20022;-70
2022/04/09 01:36:06;;;;;;;3.90;0.95;;;4.80;98.60;;;;;;5022570;28;20032;-70
2022/04/09 01:38:34;;;;;;;2.25;1.00;;;4.70;98.90;;;;;;5022481;28;20024;-70
2022/04/09 01:41:01;;;;;;;2.78;1.02;;;4.60;99.00;;;;;;5022652;28;20362;-69
2022/04/09 01:43:26;;;;;;;4.72;1.27;;;4.60;99.20;;;;;;5006076;28;20105;-70
2022/04/09 01:45:52;;;;;;;4.63;0.93;;;4.60;99.20;;;;;;5023254;28;20029;-69
2022/04/09 01:48:19;;;;;;;4.07;0.90;;;4.60;99.20;;;;;;5023429;28;20030;-70
2022/04/09 01:50:44;;;;;;;3.78;1.02;;;4.60;99.30;;;;;;5023622;28;20053;-70
2022/04/09 01:53:10;;;;;;;1.83;0.82;;;4.50;99.40;;;;;;5004318;28;20216;-70
2022/04/09 01:55:37;;;;;;;2.95;0.90;;;4.40;99.50;;;;;;5022201;28;20032;-70
2022/04/09 01:58:04;;;;;;;11.13;1.30;;;4.40;99.50;;;;;;5021805;28;20018;-71
2022/04/09 02:00:30;;;;;;;6.78;1.15;;;4.40;99.50;;;;;;5005845;28;20279;-70
2022/04/09 02:02:56;;;;;;;7.45;1.25;;;4.40;99.90;;;;;;5006147;28;20022;-71
2022/04/09 02:05:21;;;;;;;4.80;1.05;;;4.40;99.70;;;;;;5005510;28;20018;-69
2022/04/09 02:07:48;;;;;;;5.00;1.38;;;4.60;99.90;;;;;;5005900;28;20018;-69
2022/04/09 02:10:15;;;;;;;8.77;1.45;;;4.60;99.90;;;;;;5022811;28;20022;-70
2022/04/09 02:12:42;;;;;;;5.53;1.48;;;4.60;99.80;;;;;;5002458;28;20041;-69
2022/04/09 02:15:10;;;;;;;6.32;1.27;;;4.60;99.90;;;;;;4985605;28;20109;-70
2022/04/09 02:17:38;;;;;;;7.95;2.17;;;4.50;99.80;;;;;;5002891;28;20241;-70
2022/04/09 02:20:05;;;;;;;2.85;1.00;;;4.50;99.80;;;;;;4986567;28;20088;-70
2022/04/09 02:22:36;;;;;;;4.45;1.10;;;4.40;99.80;;;;;;5002227;28;20198;-70
2022/04/09 02:25:03;;;;;;;2.50;0.80;;;4.40;99.90;;;;;;5002599;28;20198;-70
2022/04/09 02:27:29;;;;;;;6.35;1.30;;;4.50;99.90;;;;;;5002530;28;20030;-70
2022/04/09 02:29:55;;;;;;;4.05;1.00;;;4.50;99.90;;;;;;5002469;28;20324;-69
2022/04/09 02:32:21;;;;;;;3.30;0.80;;;4.50;99.90;;;;;;5002485;28;20034;-70
2022/04/09 02:34:47;;;;;;;4.05;0.95;;;4.50;99.90;;;;;;5014295;28;20249;-70
2022/04/09 02:37:12;;;;;;;4.95;1.02;;;4.40;99.90;;;;;;5023155;28;20026;-70
2022/04/09 02:39:38;;;;;;;6.07;1.00;;;4.30;99.90;;;;;;5009414;28;20021;-69
2022/04/09 02:42:04;;;;;;;2.13;0.90;;;4.40;99.90;;;;;;5009031;28;20026;-69
2022/04/09 02:44:31;;;;;;;7.35;1.00;;;4.50;99.90;;;;;;5026564;28;20076;-69
2022/04/09 02:46:56;;;;;;;5.30;0.80;;;4.70;99.90;;;;;;5009163;28;20022;-69
2022/04/09 02:49:23;;;;;;;4.97;1.23;;;4.80;99.70;;;;;;5024819;28;20058;-70
2022/04/09 02:51:49;;;;;;;4.70;1.00;;;4.80;99.70;;;;;;5009276;28;20049;-70
2022/04/09 02:54:16;;;;;;;2.08;0.90;;;4.80;99.50;;;;;;5023721;28;20018;-70
2022/04/09 02:56:43;;;;;;;1.58;0.65;;;4.80;99.40;;;;;;5009261;28;20321;-70
2022/04/09 02:59:10;;;;;;;4.32;1.00;;;4.80;99.40;;;;;;5025259;28;20022;-70
2022/04/09 03:01:36;;;;;;;3.53;1.20;;;4.80;99.50;;;;;;5008893;28;20072;-70
2022/04/09 03:04:03;;;;;;;5.95;0.90;;;4.80;99.60;;;;;;5008642;28;20021;-70
2022/04/09 03:06:29;;;;;;;5.20;1.20;;;4.70;99.70;;;;;;5025079;28;20100;-70
2022/04/09 03:08:54;;;;;;;3.97;1.10;;;4.70;99.70;;;;;;5026147;28;20205;-71
2022/04/09 03:11:20;;;;;;;7.88;1.30;;;4.60;99.80;;;;;;4999409;28;20034;-70
2022/04/09 03:13:46;;;;;;;3.47;1.15;;;4.50;99.90;;;;;;5004882;28;20069;-70
2022/04/09 03:16:11;;;;;;;9.45;1.30;;;4.50;99.90;;;;;;5006217;28;20018;-70
2022/04/09 03:18:37;;;;;;;4.53;1.13;;;4.40;99.90;;;;;;5005333;28;20022;-70
2022/04/09 03:21:03;;;;;;;3.55;1.00;;;4.30;99.90;;;;;;5004843;28;20022;-69
2022/04/09 03:23:29;;;;;;;5.25;0.90;;;4.20;99.90;;;;;;4988923;28;20022;-70
2022/04/09 03:25:54;;;;;;;6.25;1.13;;;4.10;99.90;;;;;;5004678;28;20093;-70
2022/04/09 03:28:20;;;;;;;4.68;1.55;;;4.00;99.90;;;;;;5004340;28;20022;-70
2022/04/09 03:30:46;;;;;;;6.20;1.33;;;3.90;99.90;;;;;;5004752;28;20030;-70
2022/04/09 03:33:11;;;;;;;5.35;1.70;;;3.70;99.90;;;;;;5004592;28;20241;-70
2022/04/09 03:35:37;;;;;;;4.32;1.55;;;3.60;99.90;;;;;;5023477;28;20029;-70
2022/04/09 03:38:03;;;;;;;4.72;1.40;;;3.50;99.90;;;;;;5025135;28;20040;-70
2022/04/09 03:40:29;;;;;;;5.78;1.48;;;3.30;99.90;;;;;;5023959;28;20310;-70
2022/04/09 03:42:54;;;;;;;7.85;1.58;;;3.30;99.90;;;;;;5024300;28;20022;-70
2022/04/09 03:45:20;;;;;;;7.32;1.85;;;3.30;99.90;;;;;;5007810;28;20033;-70
2022/04/09 03:47:46;;;;;;;3.55;1.85;;;3.20;99.90;;;;;;5006649;28;20049;-70
2022/04/09 03:50:12;;;;;;;3.20;1.70;;;3.10;99.90;;;;;;5006774;28;20045;-70
2022/04/09 03:52:38;;;;;;;3.05;1.80;;;3.10;99.90;;;;;;5007788;28;20026;-70
2022/04/09 03:55:04;;;;;;;2.63;1.48;;;3.10;99.90;;;;;;5006125;28;20305;-71
2022/04/09 03:57:31;;;;;;;4.47;1.88;;;3.10;99.90;;;;;;5023945;28;20101;-70
2022/04/09 03:59:57;;;;;;;4.43;1.42;;;2.90;99.90;;;;;;5023627;28;20057;-71
2022/04/09 04:02:23;;;;;;;4.20;1.70;;;2.90;99.90;;;;;;5024070;28;20029;-71
2022/04/09 04:04:49;;;;;;;5.47;1.80;;;2.80;99.90;;;;;;5025207;28;20026;-71
2022/04/09 04:07:20;;;;;;;5.78;1.67;;;2.80;99.90;;;;;;5025348;28;20368;-71
2022/04/09 04:09:46;;;;;;;3.78;1.50;;;2.70;99.90;;;;;;5007730;28;20332;-71
2022/04/09 04:12:12;;;;;;;3.90;1.20;;;2.70;99.90;;;;;;4991554;28;20039;-71
2022/04/09 04:14:37;;;;;;;5.22;1.70;;;2.70;99.90;;;;;;5004054;28;20022;-70
2022/04/09 04:17:03;;;;;;;12.32;1.88;;;2.60;99.90;;;;;;5004263;28;20022;-70
2022/04/09 04:19:29;;;;;;;4.53;1.45;;;2.70;99.90;;;;;;5004404;28;20049;-71
2022/04/09 04:21:55;;;;;;;5.43;1.60;;;2.70;99.90;;;;;;5005011;28;20034;-70
2022/04/09 04:24:23;;;;;;;4.78;2.38;;;2.60;99.90;;;;;;5004285;28;20073;-70
2022/04/09 04:26:49;;;;;;;6.70;1.80;;;2.60;99.90;;;;;;5004040;28;20065;-70
2022/04/09 04:29:15;;;;;;;6.53;1.90;;;2.60;99.90;;;;;;5004911;28;20054;-71
2022/04/09 04:31:40;;;;;;;4.07;1.50;;;2.60;99.90;;;;;;5003157;28;20034;-71
2022/04/09 04:34:06;;;;;;;1.70;1.30;;;2.50;99.90;;;;;;5010550;28;20025;-71
2022/04/09 04:36:32;;;;;;;4.72;1.63;;;2.50;99.90;;;;;;5006734;28;20372;-70
2022/04/09 04:38:58;;;;;;;5.13;1.63;;;2.40;99.90;;;;;;5023436;28;20026;-71
2022/04/09 04:41:24;;;;;;;6.35;2.00;;;2.30;99.90;;;;;;5023223;28;20022;-70
2022/04/09 04:43:52;;;;;;;5.88;1.48;;;2.40;99.90;;;;;;4990305;28;20026;-70
2022/04/09 04:46:19;;;;;;;2.90;1.45;;;2.50;99.90;;;;;;5003651;28;20018;-70
2022/04/09 04:48:46;;;;;;;6.70;1.40;;;2.50;99.90;;;;;;5003226;28;20078;-71
2022/04/09 04:51:11;;;;;;;3.13;1.45;;;2.50;99.90;;;;;;5003612;28;20037;-71
2022/04/09 04:53:37;;;;;;;4.50;1.60;;;2.50;99.90;;;;;;5004662;28;20025;-70
2022/04/09 04:56:03;;;;;;;11.50;1.67;;;2.50;99.90;;;;;;5003154;28;20022;-70
2022/04/09 04:58:29;;;;;;;1.38;1.20;;;2.40;99.90;;;;;;5014355;28;20022;-70
2022/04/09 05:00:56;;;;;;;5.30;1.58;;;2.30;99.90;;;;;;5002717;28;20172;-71
2022/04/09 05:03:22;;;;;;;6.43;1.70;;;2.30;99.90;;;;;;5003393;28;20034;-70
2022/04/09 05:05:48;;;;;;;4.18;1.70;;;2.30;99.90;;;;;;4987197;28;20054;-71
2022/04/09 05:08:13;;;;;;;2.45;1.38;;;2.20;99.90;;;;;;5003492;28;20324;-71
2022/04/09 05:10:39;;;;;;;2.70;1.50;;;2.20;99.90;;;;;;5003117;28;20018;-71
2022/04/09 05:13:05;;;;;;;7.38;1.58;;;2.20;99.90;;;;;;5004458;28;20033;-71
2022/04/09 05:15:31;;;;;;;6.47;1.90;;;2.10;99.90;;;;;;5002951;28;20023;-71
2022/04/09 05:17:57;;;;;;;3.60;1.83;;;2.10;99.90;;;;;;5003253;28;20357;-70
2022/04/09 05:20:23;;;;;;;5.68;1.60;;;2.20;99.90;;;;;;4986940;28;20298;-70
2022/04/09 05:22:49;;;;;;;8.75;2.85;;;2.20;99.90;;;;;;5002866;28;20062;-70
2022/04/09 05:25:21;;;;;;;12.27;2.15;;;2.50;99.90;;;;;;5003148;28;20019;-71
2022/04/09 05:27:47;;;;;;;;;;;2.60;99.90;;;;;;5003410;28;20097;-71
2022/04/09 05:30:13;;;;;;;12.07;1.92;;;2.80;99.90;;;;;;5004103;28;19902;-71
2022/04/09 05:32:40;;;;;;;6.60;1.15;;;2.90;99.90;;;;;;5003708;28;20039;-71
2022/04/09 05:35:07;;;;;;;6.50;1.25;;;3.00;99.90;;;;;;5017046;28;20100;-71
2022/04/09 05:37:33;;;;;;;3.80;0.95;;;3.10;99.90;;;;;;5006257;28;20030;-71
2022/04/09 05:39:59;;;;;;;7.57;1.48;;;3.20;99.90;;;;;;5006148;28;20090;-71
2022/04/09 05:42:25;;;;;;;12.55;1.40;;;3.20;99.90;;;;;;5005503;28;20029;-70
2022/04/09 05:44:53;;;;;;;7.60;1.00;;;3.30;99.90;;;;;;5023209;28;20053;-70
2022/04/09 05:47:19;;;;;;;7.00;1.73;;;3.30;99.90;;;;;;5022718;28;20076;-70
2022/04/09 05:49:45;;;;;;;5.88;1.35;;;3.40;99.90;;;;;;5021967;28;20050;-70
2022/04/09 05:52:10;;;;;;;9.32;1.80;;;3.40;99.90;;;;;;5005702;28;20041;-71
2022/04/09 05:54:36;;;;;;;9.02;1.50;;;3.40;99.90;;;;;;5022357;28;20235;-71
2022/04/09 05:57:03;;;;;;;6.50;1.55;;;3.40;99.90;;;;;;5004365;28;20060;-71
2022/04/09 05:59:30;;;;;;;5.95;1.80;;;3.30;99.90;;;;;;5022076;28;20029;-71
2022/04/09 06:01:56;;;;;;;7.57;1.52;;;3.20;99.90;;;;;;5022132;28;20093;-69
2022/04/09 06:04:22;;;;;;;6.13;1.55;;;3.20;99.90;;;;;;5023639;28;20021;-70
2022/04/09 06:06:48;;;;;;;10.75;1.85;;;3.20;99.90;;;;;;5022187;28;20052;-69
2022/04/09 06:09:15;;;;;;;4.70;1.42;;;3.20;99.90;;;;;;5021937;28;20022;-70
2022/04/09 06:11:42;;;;;;;8.00;1.63;;;3.20;99.90;;;;;;5010614;28;20037;-70
2022/04/09 06:14:08;;;;;;;8.50;1.55;;;3.20;99.90;;;;;;5007330;28;20018;-70
2022/04/09 06:16:38;;;;;;;7.55;1.40;;;3.40;99.90;;;;;;5006401;28;20026;-71
2022/04/09 06:19:05;;;;;;;4.22;1.65;;;3.50;99.90;;;;;;4990779;28;20120;-71
2022/04/09 06:21:32;;;;;;;6.57;1.40;;;3.60;99.90;;;;;;5007564;28;20128;-70
2022/04/09 06:23:59;;;;;;;6.82;1.27;;;3.70;99.90;;;;;;5006083;28;20038;-70
2022/04/09 06:26:24;;;;;;;6.18;1.13;;;3.80;99.90;;;;;;5006324;28;20018;-69
2022/04/09 06:28:50;;;;;;;13.52;1.65;;;3.80;99.90;;;;;;5006464;28;20041;-70
2022/04/09 06:31:16;;;;;;;9.75;1.30;;;3.90;99.90;;;;;;4989675;28;20108;-70
2022/04/09 06:33:41;;;;;;;10.45;1.40;;;3.90;99.90;;;;;;4992978;28;20030;-71
2022/04/09 06:36:08;;;;;;;10.90;1.65;;;3.90;99.90;;;;;;5025684;28;20022;-70
2022/04/09 06:38:34;;;;;;;7.82;1.65;;;4.00;99.90;;;;;;5025247;28;20061;-70
2022/04/09 06:41:00;;;;;;;8.75;1.33;;;4.10;99.90;;;;;;5009232;28;20064;-70
2022/04/09 06:43:27;;;;;;;12.73;1.63;;;4.10;99.90;;;;;;5008965;28;20021;-71
2022/04/09 06:45:52;;;;;;;14.48;1.77;;;4.20;99.90;;;;;;5025179;28;20018;-70
2022/04/09 06:48:18;;;;;;;7.78;1.30;;;4.30;99.90;;;;;;5009132;28;20083;-70
2022/04/09 06:50:44;;;;;;;8.15;1.40;;;4.30;99.90;;;;;;5008135;28;20056;-71
2022/04/09 06:53:10;;;;;;;9.63;1.80;;;4.40;99.90;;;;;;5025303;28;20092;-70
2022/04/09 06:55:36;;;;;;;12.02;1.52;;;4.50;99.90;;;;;;5009106;28;20053;-70
2022/04/09 06:58:03;;;;;;;8.02;1.48;;;4.60;99.90;;;;;;5024031;28;20044;-70
2022/04/09 07:00:29;;;;;;;6.55;1.20;;;4.70;99.90;;;;;;5025170;28;20018;-72
2022/04/09 07:02:55;;;;;;;7.95;1.08;;;4.80;99.90;;;;;;5024935;28;20113;-72
2022/04/09 07:05:21;;;;;;;4.85;0.93;;;5.00;99.90;;;;;;5025216;28;20022;-71
2022/04/09 07:07:48;;;;;;;3.17;0.95;;;5.30;99.40;;;;;;5008786;28;20045;-71
2022/04/09 07:10:15;;;;;;;2.25;0.90;;;5.50;98.80;;;;;;5008146;28;20032;-71
2022/04/09 07:12:41;;;;;;;7.55;0.98;;;5.60;98.50;;;;;;5004605;28;20285;-71
2022/04/09 07:15:08;;;;;;;3.13;0.88;;;5.70;98.10;;;;;;5004819;28;20217;-70
2022/04/09 07:17:33;;;;;;;4.80;0.65;;;5.80;97.80;;;;;;5005254;28;20018;-71
2022/04/09 07:20:00;;;;;;;10.40;1.27;;;5.90;98.30;;;;;;5006879;28;20018;-71
2022/04/09 07:22:27;;;;;;;3.38;1.02;;;6.00;98.60;;;;;;4988626;28;20026;-71
2022/04/09 07:24:53;;;;;;;7.25;1.30;;;6.10;98.40;;;;;;5005055;28;20029;-71
2022/04/09 07:27:20;;;;;;;4.55;1.05;;;6.10;98.40;;;;;;5005040;28;20093;-71
2022/04/09 07:29:46;;;;;;;9.82;1.10;;;6.20;98.50;;;;;;5004771;28;20021;-70
2022/04/09 07:32:12;;;;;;;4.78;1.10;;;6.30;98.20;;;;;;4988903;28;20041;-71
2022/04/09 07:34:38;;;;;;;2.55;0.63;;;6.40;98.00;;;;;;5015474;28;20038;-71
2022/04/09 07:37:04;;;;;;;6.75;1.00;;;6.40;97.70;;;;;;5008316;28;20293;-71
2022/04/09 07:39:30;;;;;;;5.10;0.73;;;6.40;97.60;;;;;;5008023;28;20026;-71
2022/04/09 07:41:56;;;;;;;8.65;0.95;;;6.40;97.40;;;;;;5025398;28;20304;-70
2022/04/09 07:44:22;;;;;;;5.28;1.30;;;6.50;97.40;;;;;;5007257;28;20137;-71
2022/04/09 07:46:48;;;;;;;10.05;1.38;;;6.60;96.50;;;;;;5008025;28;20026;-71
2022/04/09 07:49:14;;;;;;;8.30;1.40;;;6.60;96.60;;;;;;5025252;28;20046;-71
2022/04/09 07:51:40;;;;;;;4.13;0.88;;;6.70;96.30;;;;;;5025177;28;20061;-70
2022/04/09 07:54:06;;;;;;;8.77;1.20;;;6.80;95.80;;;;;;5007321;28;20025;-71
2022/04/09 07:56:31;;;;;;;10.60;2.35;;;6.80;95.60;;;;;;5024260;28;20297;-70
2022/04/09 07:58:57;;;;;;;10.57;0.90;;;6.90;95.50;;;;;;4989917;28;20025;-70
2022/04/09 08:01:23;;;;;;;10.05;1.17;;;6.90;95.10;;;;;;5007297;28;20064;-69
2022/04/09 08:03:49;;;;;;;7.07;1.83;;;6.90;95.00;;;;;;5023983;28;20364;-70
2022/04/09 08:06:15;;;;;;;9.40;1.52;;;7.00;94.90;;;;;;5023919;28;20018;-70
2022/04/09 08:08:41;;;;;;;5.93;1.10;;;7.10;94.40;;;;;;5024007;28;20304;-70
2022/04/09 08:11:07;;;;;;;6.85;1.10;;;7.20;94.50;;;;;;5000248;28;20033;-71
2022/04/09 08:13:34;;;;;;;7.35;1.17;;;7.20;93.60;;;;;;5005421;28;20310;-71
2022/04/09 08:15:59;;;;;;;5.75;1.17;;;7.10;93.80;;;;;;5004781;28;20304;-71
2022/04/09 08:18:25;;;;;;;7.18;1.33;;;7.20;94.00;;;;;;5004068;28;20064;-71
2022/04/09 08:20:52;;;;;;;10.43;1.38;;;7.30;93.90;;;;;;5005647;28;20033;-71
2022/04/09 08:23:18;;;;;;;6.50;1.23;;;7.30;93.20;;;;;;5003263;28;20028;-70
2022/04/09 08:25:43;;;;;;;4.65;1.05;;;7.30;93.40;;;;;;5004960;28;20046;-71
2022/04/09 08:28:09;;;;;;;7.65;1.10;;;7.40;93.30;;;;;;5004045;28;20131;-71
2022/04/09 08:30:36;;;;;;;5.65;0.88;;;7.50;93.40;;;;;;5003583;28;20034;-71
2022/04/09 08:33:05;;;;;;;5.78;1.13;;;7.60;93.00;;;;;;4987152;28;20045;-71
2022/04/09 08:35:31;;;;;;;5.05;1.15;;;7.60;92.80;;;;;;5021023;28;20032;-71
2022/04/09 08:37:58;;;;;;;6.60;1.00;;;7.60;92.50;;;;;;5023331;28;20027;-71
2022/04/09 08:40:24;;;;;;;7.90;1.17;;;7.60;92.70;;;;;;5007243;28;20100;-71
2022/04/09 08:42:50;;;;;;;14.63;1.45;;;7.70;92.90;;;;;;5022413;28;20097;-71
2022/04/09 08:45:17;;;;;;;9.50;1.20;;;7.70;92.70;;;;;;5022719;28;20226;-71
2022/04/09 08:47:43;;;;;;;3.75;1.10;;;7.80;92.90;;;;;;5022966;28;20022;-71
2022/04/09 08:50:12;;;;;;;9.93;1.20;;;7.90;92.90;;;;;;5006422;28;20059;-71
2022/04/09 08:52:41;;;;;;;7.57;1.38;;;7.90;92.50;;;;;;5023602;28;20032;-72
2022/04/09 08:55:08;;;;;;;7.38;1.58;;;7.90;92.40;;;;;;5022919;28;20057;-71
2022/04/09 08:57:35;;;;;;;4.07;1.20;;;7.80;92.40;;;;;;5010216;28;20256;-71
2022/04/09 09:00:10;;;;;;;8.07;1.48;;;7.90;92.50;;;;;;5021296;28;20045;-72
2022/04/09 09:02:37;;;;;;;6.00;1.30;;;7.90;92.20;;;;;;5022627;28;20025;-71
2022/04/09 09:05:04;;;;;;;8.63;1.23;;;8.00;92.10;;;;;;5022407;28;20025;-71
2022/04/09 09:07:30;;;;;;;4.70;1.08;;;8.00;92.40;;;;;;5022607;28;20025;-70
2022/04/09 09:10:15;;;;;;;8.50;1.75;;;8.10;92.50;;;;;;5022311;28;20088;-71
2022/04/09 09:12:41;;;;;;;6.82;1.45;;;8.20;91.60;;;;;;5002713;28;20321;-72
2022/04/09 09:15:07;;;;;;;11.15;2.35;;;8.10;92.00;;;;;;5003797;28;20022;-71
2022/04/09 09:17:33;;;;;;;7.97;1.30;;;8.10;91.90;;;;;;5002836;28;20218;-71
2022/04/09 09:20:00;;;;;;;5.90;1.40;;;8.20;92.00;;;;;;5004135;28;20213;-70
2022/04/09 09:22:42;;;;;;;5.70;1.17;;;8.20;92.30;;;;;;5018870;28;20018;-72
2022/04/09 09:25:10;;;;;;;11.80;2.00;;;8.20;92.10;;;;;;5002707;28;20044;-72
2022/04/09 09:27:38;;;;;;;8.05;1.10;;;8.30;92.00;;;;;;5002926;28;20026;-69
2022/04/09 09:30:05;;;;;;;8.85;1.38;;;8.20;91.30;;;;;;5003094;28;20026;-72
2022/04/09 09:32:31;;;;;;;7.10;1.52;;;8.20;91.30;;;;;;5002544;28;20038;-71
2022/04/09 09:34:59;;;;;;;11.48;1.25;;;8.30;91.00;;;;;;5016357;28;20034;-71
2022/04/09 09:37:28;;;;;;;9.30;1.65;;;8.30;90.70;;;;;;5023647;28;20034;-70
2022/04/09 09:39:54;;;;;;;6.88;1.45;;;8.30;90.30;;;;;;5006827;28;20022;-71
2022/04/09 09:42:21;;;;;;;6.45;1.00;;;8.40;90.70;;;;;;4989717;28;20021;-71
2022/04/09 09:44:48;;;;;;;5.43;1.15;;;8.40;91.00;;;;;;5022961;28;20025;-70
2022/04/09 09:47:15;;;;;;;9.35;1.45;;;8.50;90.60;;;;;;4996840;28;20018;-71
2022/04/09 09:49:56;;;;;;;5.00;0.90;;;8.60;90.20;;;;;;4990788;28;20062;-71
2022/04/09 09:52:31;;;;;;;5.75;1.00;;;8.60;89.50;;;;;;5006540;28;20038;-71
2022/04/09 09:55:01;;;;;;;9.23;1.33;;;8.50;90.10;;;;;;5007129;28;20018;-71
2022/04/09 09:57:28;;;;;;;6.05;1.33;;;8.60;90.50;;;;;;4996252;28;20097;-71
2022/04/09 09:59:58;;;;;;;3.03;0.88;;;8.70;90.50;;;;;;5008800;28;20026;-71
2022/04/09 10:02:25;;;;;;;6.85;1.30;;;8.70;90.40;;;;;;5009707;28;20026;-70
2022/04/09 10:04:52;;;;;;;9.18;1.35;;;8.70;90.00;;;;;;5009805;28;20088;-71
2022/04/09 10:07:18;;;;;;;10.23;1.33;;;8.70;89.00;;;;;;5009840;28;20018;-71
2022/04/09 10:09:45;;;;;;;8.15;1.45;;;8.70;89.90;;;;;;5009646;28;20021;-71
2022/04/09 10:12:18;;;;;;;8.45;1.50;;;8.70;89.40;;;;;;5011244;28;20042;-70
2022/04/09 10:14:49;;;;;;;5.15;1.35;;;8.80;88.70;;;;;;5006093;28;20030;-70
2022/04/09 10:17:19;;;;;;;7.38;1.23;;;8.90;88.80;;;;;;4990062;28;20018;-71
2022/04/09 10:19:47;;;;;;;6.47;1.25;;;8.90;88.70;;;;;;5006222;28;20049;-71
2022/04/09 10:22:15;;;;;;;9.70;1.50;;;8.90;89.50;;;;;;5006272;28;20027;-71
2022/04/09 10:24:41;;;;;;;9.20;1.30;;;9.00;88.00;;;;;;5007176;28;20097;-72
2022/04/09 10:27:08;;;;;;;6.95;1.27;;;9.20;88.50;;;;;;4989580;28;20034;-69
2022/04/09 10:29:49;;;;;;;4.38;1.52;;;9.40;86.60;;;;;;5006417;28;20029;-71
2022/04/09 10:32:43;;;;;;;7.68;1.27;;;9.40;86.40;;;;;;5006209;28;20221;-70
2022/04/09 10:35:38;;;;;;;8.15;1.23;;;9.50;87.00;;;;;;5008200;28;20026;-71
2022/04/09 10:38:18;;;;;;;8.73;1.38;;;9.50;86.40;;;;;;5013324;28;20033;-71
2022/04/09 10:41:24;;;;;;;4.22;1.10;;;9.50;87.00;;;;;;5009543;28;20273;-69
2022/04/09 10:43:51;;;;;;;7.63;1.30;;;9.50;87.40;;;;;;5014328;28;20021;-70
2022/04/09 10:46:20;;;;;;;4.25;1.10;;;9.40;87.10;;;;;;5026444;28;20010;-69
2022/04/09 10:48:48;;;;;;;8.90;1.30;;;9.40;87.90;;;;;;5009005;28;20204;-71
2022/04/09 10:51:15;;;;;;;5.45;1.30;;;9.50;87.80;;;;;;5009539;28;20045;-71
2022/04/09 10:53:48;;;;;;;7.45;1.60;;;9.50;87.40;;;;;;5024729;28;20383;-72
2022/04/09 10:56:21;;;;;;;6.65;1.05;;;9.90;86.90;;;;;;5009050;28;20030;-72
2022/04/09 10:59:08;;;;;;;7.05;1.00;;;10.10;85.40;;;;;;5021954;28;20209;-70
2022/04/09 11:01:53;;;;;;;7.80;1.20;;;10.20;83.90;;;;;;5023940;28;20018;-72
2022/04/09 11:04:37;;;;;;;5.35;1.30;;;10.30;84.10;;;;;;5008890;28;20022;-71
2022/04/09 11:07:23;;;;;;;9.88;1.48;;;10.30;84.40;;;;;;5008505;28;20148;-71
2022/04/09 11:09:57;;;;;;;5.93;1.50;;;10.40;84.40;;;;;;5025025;28;20042;-71
2022/04/09 11:12:44;;;;;;;8.98;1.70;;;10.50;85.30;;;;;;5008392;28;20034;-71
2022/04/09 11:15:12;;;;;;;4.03;1.42;;;10.70;83.40;;;;;;5010765;28;20392;-71
2022/04/09 11:17:39;;;;;;;10.32;1.60;;;10.90;81.90;;;;;;5024717;28;20024;-71
2022/04/09 11:20:11;;;;;;;5.28;1.20;;;10.90;82.10;;;;;;5025011;28;20030;-72
2022/04/09 11:22:38;;;;;;;;;;;10.90;81.60;;;;;;5008995;28;20080;-71
2022/04/09 11:25:06;;;;;;;5.18;1.27;;;10.70;81.60;;;;;;5008324;28;19905;-71
2022/04/09 11:27:32;;;;;;;6.10;1.50;;;10.60;81.90;;;;;;5008699;28;20075;-72
2022/04/09 11:29:58;;;;;;;3.85;1.00;;;10.70;81.40;;;;;;5008161;28;20052;-72
2022/04/09 11:32:25;;;;;;;3.75;1.00;;;10.70;81.50;;;;;;5008312;28;20040;-72
2022/04/09 11:35:00;;;;;;;2.90;1.10;;;10.80;79.40;;;;;;5008020;28;20068;-74
2022/04/09 11:37:29;;;;;;;5.05;0.90;;;10.70;78.10;;;;;;4992846;28;20018;-71
2022/04/09 11:39:57;;;;;;;4.65;1.08;;;10.80;77.70;;;;;;5008927;28;20061;-71
2022/04/09 11:42:24;;;;;;;4.85;1.00;;;11.10;77.20;;;;;;5008242;28;20100;-71
2022/04/09 11:44:50;;;;;;;4.10;1.20;;;11.20;76.30;;;;;;5007644;28;20068;-72
2022/04/09 11:47:18;;;;;;;4.20;1.00;;;11.20;76.40;;;;;;5023976;28;20026;-72
2022/04/09 11:49:47;;;;;;;5.75;1.15;;;11.30;74.70;;;;;;5024200;28;20060;-71
2022/04/09 11:52:23;;;;;;;4.03;1.00;;;11.40;74.20;;;;;;5023865;28;20368;-72
2022/04/09 11:54:49;;;;;;;4.72;0.70;;;11.40;73.10;;;;;;5024083;28;20029;-72
2022/04/09 11:57:15;;;;;;;4.68;0.90;;;11.40;73.10;;;;;;5007855;28;20080;-72
2022/04/09 11:59:40;;;;;;;4.43;0.80;;;11.20;71.80;;;;;;5024000;28;20029;-71
2022/04/09 12:02:25;;;;;;;3.75;1.10;;;11.10;72.20;;;;;;5022430;28;20048;-72
2022/04/09 12:04:51;;;;;;;3.33;1.05;;;11.10;72.50;;;;;;5024120;28;20025;-71
2022/04/09 12:07:18;;;;;;;5.13;1.10;;;11.10;74.00;;;;;;5024045;28;20083;-72
2022/04/09 12:09:44;;;;;;;4.88;1.48;;;11.10;72.90;;;;;;5006268;28;20101;-72
2022/04/09 12:12:10;;;;;;;8.38;1.40;;;11.30;77.20;;;;;;5009319;28;20061;-71
2022/04/09 12:14:36;;;;;;;5.75;1.52;;;11.50;77.60;;;;;;5003945;28;20317;-71
2022/04/09 12:17:13;;;;;;;9.00;1.27;;;12.00;77.80;;;;;;5005250;28;20021;-71
2022/04/09 12:19:43;;;;;;;11.35;1.33;;;12.20;77.70;;;;;;5003847;28;20093;-71
2022/04/09 12:22:22;;;;;;;8.40;1.20;;;12.10;74.00;;;;;;5004161;28;20022;-72
2022/04/09 12:24:56;;;;;;;5.90;1.58;;;11.90;76.90;;;;;;5003749;28;20022;-71
2022/04/09 12:27:43;;;;;;;4.30;1.20;;;11.90;77.90;;;;;;5004053;28;20021;-72
2022/04/09 12:30:09;;;;;;;3.85;0.95;;;11.80;72.00;;;;;;5003601;28;20069;-71
2022/04/09 12:32:35;;;;;;;8.65;1.40;;;11.50;73.10;;;;;;5003954;28;20096;-72
2022/04/09 12:35:06;;;;;;;3.55;0.88;;;11.50;75.50;;;;;;5016976;28;20025;-72
2022/04/09 12:37:50;;;;;;;6.40;1.20;;;11.50;75.30;;;;;;5006980;28;20021;-72
2022/04/09 12:40:18;;;;;;;2.92;0.80;;;11.50;76.30;;;;;;5023226;28;20036;-70
2022/04/09 12:42:46;;;;;;;5.35;0.80;;;11.60;74.30;;;;;;5024385;28;20044;-71
2022/04/09 12:45:15;;;;;;;4.70;1.33;;;11.50;76.20;;;;;;5024343;28;20388;-72
2022/04/09 12:47:42;;;;;;;5.93;1.10;;;11.50;77.20;;;;;;5006697;28;20029;-71
2022/04/09 12:50:27;;;;;;;4.78;1.02;;;11.40;77.80;;;;;;5022681;28;20060;-71
2022/04/09 12:52:54;;;;;;;5.95;0.90;;;11.40;77.30;;;;;;5023304;28;20038;-72
2022/04/09 12:55:21;;;;;;;4.57;1.38;;;11.70;77.00;;;;;;5023381;28;20049;-72
2022/04/09 12:57:47;;;;;;;6.95;1.25;;;11.90;76.20;;;;;;5002948;28;20026;-71